Accueil
METAR-TAF:

METAR-TAF

Aéroports :

Malekula, Vanuatu

latitude: 16-27-26S, longitude: 167-49-42E, altitude: 2 m

METAR: absent

Heure: 12:26 (01:26 UTC)

Prévision

Le bulletin a été fait il y a 2 heures et 26 minutes, à 23:00 UTC
Prévision valable du 23 à 00 UTC au 23 à 24 UTC
Vent 10 kt de sud-est
Visibilité 10 km ou plus
Nuages fragmentés à une hauteur de 2000 ft

TAF: NVSL 222300Z 2300/2324 14010KT 9999 BKN020

Observations et prévisions météorologiques de plus de 4000 aéroports (messages METAR et TAF).

Les stations disponibles sont représentées par des disques jaunes et rouges sur la carte.

Passer la souris dessus pour voir le nom de la station.

Cliquer dessus pour voir les observations et prévisions météorologiques.

Pour changer de carte: cliquez sur les boutons verts avec une croix noire pour zoomer, sur le bouton vert avec un tiret pour effectuer un zoom arrière, ou sur les flèches vertes pour les cartes adjacentes.


METAR-TAF: